createdAt,value
2022-08-03T00:00:09.469Z,1.73
2022-08-03T00:02:41.082Z,1.80
2022-08-03T00:05:12.746Z,1.98
2022-08-03T00:07:43.907Z,2.05
2022-08-03T00:10:17.868Z,2.00
2022-08-03T00:12:49.170Z,2.10
2022-08-03T00:15:20.875Z,2.03
2022-08-03T00:17:52.375Z,1.80
2022-08-03T00:20:25.148Z,2.00
2022-08-03T00:22:56.821Z,1.88
2022-08-03T00:25:30.476Z,1.90
2022-08-03T00:28:02.399Z,1.90
2022-08-03T00:30:34.257Z,2.17
2022-08-03T00:33:06.155Z,2.03
2022-08-03T00:35:50.935Z,1.70
2022-08-03T00:38:22.638Z,1.88
2022-08-03T00:40:56.885Z,1.75
2022-08-03T00:43:29.615Z,1.80
2022-08-03T00:45:59.989Z,1.88
2022-08-03T00:48:33.316Z,1.92
2022-08-03T00:51:05.396Z,2.20
2022-08-03T00:53:38.920Z,2.03
2022-08-03T00:56:12.087Z,2.28
2022-08-03T00:58:44.354Z,1.98
2022-08-03T01:01:15.994Z,1.98
2022-08-03T01:03:48.830Z,2.33
2022-08-03T01:06:25.558Z,2.13
2022-08-03T01:09:09.516Z,2.47
2022-08-03T01:11:59.852Z,2.35
2022-08-03T01:14:42.211Z,2.40
2022-08-03T01:17:21.949Z,2.15
2022-08-03T01:20:01.744Z,2.00
2022-08-03T01:23:32.795Z,2.30
2022-08-03T01:26:46.706Z,2.50
2022-08-03T01:30:08.672Z,2.28
2022-08-03T01:33:01.684Z,2.38
2022-08-03T01:35:40.730Z,2.17
2022-08-03T01:38:17.193Z,2.20
2022-08-03T01:40:52.401Z,2.22
2022-08-03T01:43:58.933Z,2.35
2022-08-03T01:46:22.594Z,2.25
2022-08-03T01:48:58.072Z,2.40
2022-08-03T01:51:58.422Z,2.40
2022-08-03T01:54:23.621Z,2.40
2022-08-03T01:56:57.554Z,2.38
2022-08-03T01:59:32.743Z,2.33
2022-08-03T02:02:28.620Z,2.58
2022-08-03T02:05:01.786Z,2.50
2022-08-03T02:07:35.616Z,2.38
2022-08-03T02:10:10.955Z,2.30
2022-08-03T02:12:43.445Z,2.38
2022-08-03T02:15:19.975Z,2.47
2022-08-03T02:17:53.131Z,2.58
2022-08-03T02:20:28.149Z,2.45
2022-08-03T02:22:58.701Z,2.22
2022-08-03T02:25:30.502Z,2.28
2022-08-03T02:28:11.038Z,2.42
2022-08-03T02:30:45.627Z,2.22
2022-08-03T02:33:24.262Z,2.30
2022-08-03T02:35:59.738Z,2.42
2022-08-03T02:38:36.263Z,2.40
2022-08-03T02:41:11.938Z,3.00
2022-08-03T02:44:06.380Z,2.50
2022-08-03T02:46:41.100Z,2.50
2022-08-03T02:49:40.571Z,2.58
2022-08-03T02:52:16.907Z,2.53
2022-08-03T02:54:50.465Z,2.88
2022-08-03T02:57:24.502Z,2.53
2022-08-03T03:00:08.407Z,2.72
2022-08-03T03:02:44.455Z,2.40
2022-08-03T03:05:55.754Z,2.60
2022-08-03T03:08:17.648Z,2.30
2022-08-03T03:10:53.303Z,2.33
2022-08-03T03:13:27.455Z,2.55
2022-08-03T03:16:02.990Z,2.20
2022-08-03T03:18:36.542Z,2.40
2022-08-03T03:21:11.215Z,2.13
2022-08-03T03:23:46.209Z,2.10
2022-08-03T03:26:18.339Z,2.25
2022-08-03T03:28:49.921Z,2.15
2022-08-03T03:31:28.035Z,2.20
2022-08-03T03:34:01.380Z,2.20
2022-08-03T03:36:32.979Z,2.10
2022-08-03T03:39:15.235Z,2.53
2022-08-03T03:41:48.102Z,2.22
2022-08-03T03:44:19.479Z,2.42
2022-08-03T03:46:50.862Z,2.40
2022-08-03T03:49:22.516Z,2.05
2022-08-03T03:51:57.251Z,2.38
2022-08-03T03:54:30.377Z,2.58
2022-08-03T03:57:01.745Z,2.33
2022-08-03T03:59:33.235Z,2.13
2022-08-03T04:02:14.614Z,2.40
2022-08-03T04:05:09.813Z,2.38
2022-08-03T04:08:12.130Z,2.13
2022-08-03T04:11:03.723Z,2.33
2022-08-03T04:13:41.134Z,2.30
2022-08-03T04:16:17.173Z,2.45
2022-08-03T04:18:56.059Z,2.30
2022-08-03T04:21:30.487Z,2.45
2022-08-03T04:24:08.044Z,2.53
2022-08-03T04:26:49.573Z,2.60
2022-08-03T04:29:25.082Z,2.17
2022-08-03T04:32:01.657Z,2.55
2022-08-03T04:34:35.766Z,2.60
2022-08-03T04:37:16.058Z,2.40
2022-08-03T04:39:52.913Z,2.72
2022-08-03T04:42:31.818Z,2.75
2022-08-03T04:45:03.349Z,2.60
2022-08-03T04:47:37.592Z,2.60
2022-08-03T04:50:12.999Z,2.88
2022-08-03T04:52:46.429Z,2.88
2022-08-03T04:55:28.644Z,2.50
2022-08-03T04:58:02.719Z,2.70
2022-08-03T05:00:34.818Z,2.40
2022-08-03T05:03:20.246Z,2.58
2022-08-03T05:06:01.512Z,2.67
2022-08-03T05:08:33.915Z,2.63
2022-08-03T05:11:05.095Z,2.45
2022-08-03T05:13:38.395Z,2.33
2022-08-03T05:16:10.374Z,2.50
2022-08-03T05:18:41.438Z,2.60
2022-08-03T05:21:15.152Z,2.42
2022-08-03T05:23:46.633Z,2.33
2022-08-03T05:26:17.692Z,2.47
2022-08-03T05:28:51.489Z,2.55
2022-08-03T05:31:23.291Z,2.50
2022-08-03T05:33:54.666Z,2.58
2022-08-03T05:36:25.881Z,2.50
2022-08-03T05:38:59.596Z,2.40
2022-08-03T05:41:37.225Z,2.38
2022-08-03T05:44:11.294Z,2.28
2022-08-03T05:46:42.912Z,2.22
2022-08-03T05:49:13.480Z,2.60
2022-08-03T05:51:44.985Z,2.30
2022-08-03T05:54:16.011Z,2.40
2022-08-03T05:56:47.657Z,2.58
2022-08-03T05:59:37.574Z,2.47
2022-08-03T06:02:10.405Z,2.30
2022-08-03T06:04:41.464Z,2.17
2022-08-03T06:07:18.891Z,2.45
2022-08-03T06:10:37.354Z,2.63
2022-08-03T06:12:41.954Z,2.30
2022-08-03T06:15:16.250Z,2.00
2022-08-03T06:17:51.188Z,2.25
2022-08-03T06:20:27.300Z,2.53
2022-08-03T06:23:00.493Z,2.55
2022-08-03T06:25:32.043Z,2.40
2022-08-03T06:28:04.344Z,2.50
2022-08-03T06:30:37.421Z,2.30
2022-08-03T06:33:09.109Z,2.38
2022-08-03T06:35:39.581Z,2.38
2022-08-03T06:38:18.680Z,2.47
2022-08-03T06:40:50.938Z,2.50
2022-08-03T06:43:21.815Z,2.20
2022-08-03T06:45:55.633Z,2.50
2022-08-03T06:48:26.460Z,2.50
2022-08-03T06:50:57.341Z,2.38
2022-08-03T06:53:27.746Z,2.30
2022-08-03T06:55:58.830Z,2.17
2022-08-03T06:58:30.670Z,2.13
2022-08-03T07:01:03.627Z,2.40
2022-08-03T07:03:35.322Z,2.30
2022-08-03T07:06:06.449Z,2.08
2022-08-03T07:08:38.474Z,2.28
2022-08-03T07:11:10.673Z,2.47
2022-08-03T07:13:42.372Z,2.83
2022-08-03T07:16:16.302Z,2.15
2022-08-03T07:18:47.815Z,2.55
2022-08-03T07:21:18.937Z,2.30
2022-08-03T07:23:50.533Z,2.80
2022-08-03T07:26:21.073Z,2.40
2022-08-03T07:28:51.765Z,2.60
2022-08-03T07:31:25.331Z,2.83
2022-08-03T07:33:56.559Z,2.65
2022-08-03T07:36:27.844Z,3.00
2022-08-03T07:38:59.596Z,2.80
2022-08-03T07:41:30.263Z,2.60
2022-08-03T07:44:00.995Z,2.53
2022-08-03T07:46:35.206Z,2.25
2022-08-03T07:49:05.511Z,2.40
2022-08-03T07:51:38.394Z,2.40
2022-08-03T07:54:11.562Z,2.22
2022-08-03T07:56:46.223Z,2.45
2022-08-03T07:59:17.955Z,2.35
2022-08-03T08:01:54.153Z,2.38
2022-08-03T08:04:25.872Z,2.50
2022-08-03T08:06:57.543Z,2.42
2022-08-03T08:09:28.723Z,2.30
2022-08-03T08:12:00.419Z,2.60
2022-08-03T08:14:31.798Z,2.70
2022-08-03T08:17:07.516Z,2.70
2022-08-03T08:19:38.793Z,2.63
2022-08-03T08:22:15.638Z,2.78
2022-08-03T08:24:49.581Z,2.45
2022-08-03T08:27:22.758Z,2.80
2022-08-03T08:29:56.296Z,2.53
2022-08-03T08:32:32.626Z,2.53
2022-08-03T08:35:03.973Z,2.30
2022-08-03T08:37:35.392Z,2.50
2022-08-03T08:40:07.987Z,2.50
2022-08-03T08:42:51.883Z,2.78
2022-08-03T08:45:29.264Z,2.78
2022-08-03T08:48:08.332Z,2.60
2022-08-03T08:50:43.153Z,2.58
2022-08-03T08:53:21.663Z,2.47
2022-08-03T08:56:08.187Z,2.35
2022-08-03T08:58:45.636Z,2.47
2022-08-03T09:01:18.416Z,2.42
2022-08-03T09:03:54.007Z,2.53
2022-08-03T09:06:25.886Z,2.55
2022-08-03T09:08:56.635Z,2.55
2022-08-03T09:11:53.184Z,2.42
2022-08-03T09:14:36.808Z,2.35
2022-08-03T09:17:17.480Z,2.50
2022-08-03T09:20:10.778Z,2.13
2022-08-03T09:22:57.897Z,2.40
2022-08-03T09:25:37.207Z,2.30
2022-08-03T09:28:59.964Z,2.60
2022-08-03T09:31:06.188Z,2.30
2022-08-03T09:33:50.456Z,2.45
2022-08-03T09:36:47.317Z,2.47
2022-08-03T09:39:37.474Z,2.38
2022-08-03T09:42:15.526Z,2.25
2022-08-03T09:44:49.705Z,2.28
2022-08-03T09:47:33.853Z,2.30
2022-08-03T09:50:08.453Z,2.13
2022-08-03T09:52:52.354Z,2.10
2022-08-03T09:56:34.595Z,2.28
2022-08-03T09:58:16.743Z,2.05
2022-08-03T10:01:05.247Z,2.22
2022-08-03T10:04:03.206Z,2.20
2022-08-03T10:06:32.181Z,2.15
2022-08-03T10:09:15.054Z,2.10
2022-08-03T10:11:49.862Z,2.00
2022-08-03T10:14:22.030Z,2.13
2022-08-03T10:16:53.803Z,2.22
2022-08-03T10:19:26.271Z,1.90
2022-08-03T10:22:05.037Z,2.13
2022-08-03T10:24:39.506Z,2.03
2022-08-03T10:27:14.105Z,2.08
2022-08-03T10:29:52.778Z,2.05
2022-08-03T10:32:30.958Z,2.08
2022-08-03T10:35:19.105Z,1.90
2022-08-03T10:37:59.075Z,2.10
2022-08-03T10:40:55.781Z,2.13
2022-08-03T10:43:41.255Z,2.28
2022-08-03T10:46:12.511Z,2.10
2022-08-03T10:48:44.884Z,2.33
2022-08-03T10:51:17.367Z,2.35
2022-08-03T10:53:54.502Z,2.42
2022-08-03T10:57:17.941Z,2.40
2022-08-03T11:00:05.536Z,2.25
2022-08-03T11:03:20.052Z,2.28
2022-08-03T11:05:55.507Z,2.05
2022-08-03T11:08:35.825Z,2.10
2022-08-03T11:11:29.648Z,2.30
2022-08-03T11:14:09.469Z,1.98
2022-08-03T11:16:46.482Z,2.28
2022-08-03T11:19:21.056Z,2.08
2022-08-03T11:22:00.710Z,2.00
2022-08-03T11:25:05.834Z,2.00
2022-08-03T11:27:38.252Z,1.95
2022-08-03T11:30:27.862Z,1.90
2022-08-03T11:33:02.263Z,1.80
2022-08-03T11:35:36.587Z,2.10
2022-08-03T11:38:13.954Z,1.90
2022-08-03T11:40:48.376Z,2.00
2022-08-03T11:43:49.360Z,1.95
2022-08-03T11:46:28.353Z,1.90
2022-08-03T11:49:11.082Z,1.98
2022-08-03T11:51:43.192Z,2.10
2022-08-03T11:54:14.668Z,1.98
2022-08-03T11:56:51.294Z,2.17
2022-08-03T11:59:35.565Z,2.17
2022-08-03T12:02:13.461Z,1.85
2022-08-03T12:04:54.554Z,1.90
2022-08-03T12:08:04.235Z,1.85
2022-08-03T12:10:18.061Z,1.98
2022-08-03T12:13:00.764Z,1.98
2022-08-03T12:15:34.534Z,1.88
2022-08-03T12:18:17.200Z,1.85
2022-08-03T12:20:49.615Z,1.80
2022-08-03T12:23:21.802Z,1.77
2022-08-03T12:25:53.892Z,1.80
2022-08-03T12:28:37.171Z,1.80
2022-08-03T12:31:11.126Z,1.73
2022-08-03T12:34:08.194Z,1.90
2022-08-03T12:36:40.302Z,1.80
2022-08-03T12:39:12.420Z,1.70
2022-08-03T12:41:43.713Z,1.80
2022-08-03T12:44:32.947Z,1.58
2022-08-03T12:47:05.633Z,1.70
2022-08-03T12:49:52.868Z,1.55
2022-08-03T12:52:27.827Z,1.70
2022-08-03T12:55:00.937Z,1.60
2022-08-03T12:57:45.433Z,1.60
2022-08-03T13:00:28.699Z,1.60
2022-08-03T13:03:39.686Z,1.70
2022-08-03T13:06:03.319Z,1.65
2022-08-03T13:08:35.982Z,1.50
2022-08-03T13:11:50.587Z,1.60
2022-08-03T13:14:19.730Z,1.70
2022-08-03T13:16:51.842Z,1.60
2022-08-03T13:19:23.094Z,1.65
2022-08-03T13:22:04.106Z,1.60
2022-08-03T13:24:37.024Z,1.40
2022-08-03T13:28:01.377Z,1.60
2022-08-03T13:30:02.068Z,1.30
2022-08-03T13:32:33.028Z,1.60
2022-08-03T13:35:04.882Z,1.50
2022-08-03T13:37:37.211Z,1.70
2022-08-03T13:40:11.791Z,1.58
2022-08-03T13:42:47.580Z,1.40
2022-08-03T13:45:18.471Z,1.55
2022-08-03T13:47:50.168Z,1.58
2022-08-03T13:50:22.250Z,1.58
2022-08-03T13:52:55.605Z,1.50
2022-08-03T13:55:27.435Z,1.30
2022-08-03T13:58:19.094Z,1.70
2022-08-03T14:00:49.288Z,1.27
2022-08-03T14:03:21.104Z,1.40
2022-08-03T14:05:52.770Z,1.27
2022-08-03T14:08:26.700Z,1.73
2022-08-03T14:10:58.577Z,1.50
2022-08-03T14:13:29.829Z,1.38
2022-08-03T14:16:10.011Z,1.60
2022-08-03T14:18:42.712Z,1.50
2022-08-03T14:21:19.370Z,1.55
2022-08-03T14:23:52.526Z,1.45
2022-08-03T14:26:23.925Z,1.40
2022-08-03T14:28:55.133Z,1.50
2022-08-03T14:32:11.055Z,1.60
2022-08-03T14:34:18.357Z,1.30
2022-08-03T14:36:50.533Z,1.40
2022-08-03T14:39:24.515Z,1.40
2022-08-03T14:42:03.561Z,1.48
2022-08-03T14:44:34.044Z,1.58
2022-08-03T14:47:05.887Z,1.13
2022-08-03T14:50:37.373Z,1.60
2022-08-03T14:52:28.441Z,1.50
2022-08-03T14:55:02.073Z,1.65
2022-08-03T14:57:33.483Z,1.63
2022-08-03T15:00:04.603Z,1.50
2022-08-03T15:02:36.473Z,1.55
2022-08-03T15:05:10.832Z,1.48
2022-08-03T15:07:42.074Z,1.50
2022-08-03T15:10:16.162Z,1.63
2022-08-03T15:12:48.195Z,1.55
2022-08-03T15:15:20.432Z,1.48
2022-08-03T15:18:00.230Z,1.60
2022-08-03T15:20:50.812Z,1.77
2022-08-03T15:23:27.573Z,1.45
2022-08-03T15:26:30.588Z,1.50
2022-08-03T15:28:56.386Z,1.63
2022-08-03T15:31:29.370Z,1.60
2022-08-03T15:34:01.457Z,1.58
2022-08-03T15:36:32.782Z,1.80
2022-08-03T15:39:05.183Z,1.52
2022-08-03T15:41:39.201Z,1.50
2022-08-03T15:44:10.233Z,1.80
2022-08-03T15:46:41.837Z,1.80
2022-08-03T15:49:13.170Z,1.60
2022-08-03T15:51:44.422Z,1.65
2022-08-03T15:54:16.876Z,1.73
2022-08-03T15:56:50.062Z,1.63
2022-08-03T15:59:22.490Z,1.60
2022-08-03T16:01:57.756Z,1.60
2022-08-03T16:04:29.170Z,1.55
2022-08-03T16:06:59.953Z,1.50
2022-08-03T16:09:42.240Z,1.75
2022-08-03T16:12:17.218Z,1.77
2022-08-03T16:14:52.928Z,1.65
2022-08-03T16:17:25.791Z,1.90
2022-08-03T16:19:56.909Z,1.77
2022-08-03T16:22:27.965Z,2.10
2022-08-03T16:24:59.985Z,2.40
2022-08-03T16:27:56.782Z,2.78
2022-08-03T16:30:25.216Z,2.47
2022-08-03T16:32:56.603Z,2.95
2022-08-03T16:35:28.222Z,2.53
2022-08-03T16:38:07.968Z,2.20
2022-08-03T16:40:41.897Z,2.05
2022-08-03T16:43:19.604Z,2.10
2022-08-03T16:45:51.953Z,1.90
2022-08-03T16:48:22.989Z,2.05
2022-08-03T16:50:55.134Z,1.98
2022-08-03T16:54:05.464Z,2.20
2022-08-03T16:56:24.257Z,2.13
2022-08-03T16:58:56.794Z,1.77
2022-08-03T17:01:35.772Z,1.83
2022-08-03T17:04:13.455Z,1.90
2022-08-03T17:06:45.661Z,1.98
2022-08-03T17:09:20.557Z,1.80
2022-08-03T17:11:53.974Z,1.73
2022-08-03T17:14:28.377Z,1.90
2022-08-03T17:17:04.533Z,3.58
2022-08-03T17:19:38.475Z,3.90
2022-08-03T17:22:16.713Z,2.63
2022-08-03T17:24:53.761Z,2.40
2022-08-03T17:28:49.347Z,2.60
2022-08-03T17:31:23.159Z,2.85
2022-08-03T17:34:00.383Z,2.10
2022-08-03T17:37:02.006Z,2.13
2022-08-03T17:39:48.326Z,1.98
2022-08-03T17:42:29.142Z,1.75
2022-08-03T17:45:15.530Z,1.85
2022-08-03T17:47:57.055Z,2.08
2022-08-03T17:50:45.228Z,1.98
2022-08-03T17:56:45.019Z,1.70
2022-08-03T17:59:52.479Z,1.95
2022-08-03T18:02:55.551Z,2.00
2022-08-03T18:08:32.261Z,1.83
2022-08-03T18:11:14.493Z,1.92
2022-08-03T18:14:01.220Z,2.10
2022-08-03T18:16:46.476Z,2.28
2022-08-03T18:19:19.146Z,2.00
2022-08-03T18:22:03.341Z,2.20
2022-08-03T18:24:36.465Z,2.10
2022-08-03T18:27:23.814Z,2.00
2022-08-03T18:30:17.460Z,1.80
2022-08-03T18:33:00.829Z,2.10
2022-08-03T18:38:27.617Z,1.85
2022-08-03T18:40:58.157Z,1.80
2022-08-03T18:43:46.342Z,1.70
2022-08-03T18:46:40.982Z,1.98
2022-08-03T18:49:22.984Z,2.00
2022-08-03T18:52:12.061Z,1.90
2022-08-03T18:55:19.662Z,1.60
2022-08-03T18:58:06.749Z,1.85
2022-08-03T19:00:54.585Z,1.70
2022-08-03T19:03:41.459Z,2.00
2022-08-03T19:06:22.308Z,1.92
2022-08-03T19:09:09.483Z,1.77
2022-08-03T19:12:12.335Z,1.85
2022-08-03T19:14:50.121Z,1.60
2022-08-03T19:17:29.306Z,1.80
2022-08-03T19:20:09.130Z,1.80
2022-08-03T19:22:45.875Z,1.70
2022-08-03T19:25:17.055Z,1.90
2022-08-03T19:27:51.924Z,1.77
2022-08-03T19:30:40.489Z,1.70
2022-08-03T19:33:15.677Z,1.70
2022-08-03T19:35:55.421Z,1.80
2022-08-03T19:38:44.657Z,1.70
2022-08-03T19:41:19.729Z,1.92
2022-08-03T19:44:00.204Z,1.63
2022-08-03T19:46:40.063Z,1.85
2022-08-03T19:49:17.378Z,1.90
2022-08-03T19:52:02.042Z,1.70
2022-08-03T19:54:52.961Z,1.65
2022-08-03T19:57:27.921Z,1.67
2022-08-03T20:00:04.007Z,1.77
2022-08-03T20:02:37.100Z,1.58
2022-08-03T20:05:15.010Z,1.77
2022-08-03T20:07:49.909Z,1.73
2022-08-03T20:10:21.931Z,1.63
2022-08-03T20:12:52.643Z,1.75
2022-08-03T20:15:31.742Z,1.75
2022-08-03T20:18:03.543Z,1.80
2022-08-03T20:20:39.235Z,1.98
2022-08-03T20:23:20.673Z,1.80
2022-08-03T20:25:59.779Z,1.52
2022-08-03T20:28:50.562Z,1.80
2022-08-03T20:31:32.602Z,1.65
2022-08-03T20:34:09.880Z,1.92
2022-08-03T20:36:41.701Z,1.70
2022-08-03T20:39:12.763Z,1.80
2022-08-03T20:41:45.898Z,1.60
2022-08-03T20:44:17.751Z,1.65
2022-08-03T20:47:00.739Z,1.77
2022-08-03T20:49:45.961Z,1.77
2022-08-03T20:52:18.431Z,1.70
2022-08-03T20:54:50.222Z,1.60
2022-08-03T20:57:23.240Z,1.63
2022-08-03T20:59:54.606Z,1.40
2022-08-03T21:02:30.426Z,1.70
2022-08-03T21:05:03.749Z,1.60
2022-08-03T21:08:05.409Z,1.80
2022-08-03T21:10:42.769Z,1.80
2022-08-03T21:12:58.523Z,1.92
2022-08-03T21:13:04.018Z,1.98
2022-08-03T21:13:05.680Z,2.00
2022-08-03T21:13:26.678Z,1.80
2022-08-03T21:16:11.194Z,1.60
2022-08-03T21:18:53.762Z,1.63
2022-08-03T21:21:27.176Z,1.75
2022-08-03T21:24:04.557Z,1.58
2022-08-03T21:26:40.943Z,1.88
2022-08-03T21:29:17.173Z,1.67
2022-08-03T21:31:49.469Z,1.65
2022-08-03T21:34:23.531Z,1.67
2022-08-03T21:36:57.787Z,1.83
2022-08-03T21:39:28.606Z,1.80
2022-08-03T21:42:00.766Z,1.90
2022-08-03T21:44:32.233Z,1.83
2022-08-03T21:47:05.701Z,1.85
2022-08-03T21:49:52.124Z,1.73
2022-08-03T21:52:34.596Z,1.67
2022-08-03T21:55:09.265Z,1.73
2022-08-03T21:57:55.441Z,1.73
2022-08-03T22:00:27.093Z,1.75
2022-08-03T22:03:15.412Z,2.00
2022-08-03T22:05:52.445Z,1.65
2022-08-03T22:08:37.786Z,1.70
2022-08-03T22:11:09.987Z,1.80
2022-08-03T22:13:43.659Z,1.70
2022-08-03T22:16:16.994Z,1.70
2022-08-03T22:18:50.354Z,1.75
2022-08-03T22:21:27.906Z,1.85
2022-08-03T22:24:10.688Z,1.60
2022-08-03T22:27:06.393Z,1.60
2022-08-03T22:29:42.068Z,1.80
2022-08-03T22:32:13.289Z,1.75
2022-08-03T22:34:49.660Z,1.67
2022-08-03T22:37:24.268Z,1.70
2022-08-03T22:39:56.555Z,1.63
2022-08-03T22:42:28.631Z,1.50
2022-08-03T22:45:00.037Z,1.50
2022-08-03T22:47:32.044Z,1.60
2022-08-03T22:50:31.925Z,1.50
2022-08-03T22:52:59.651Z,1.80
2022-08-03T22:55:31.317Z,1.73
2022-08-03T22:58:02.976Z,1.95
2022-08-03T23:00:38.091Z,1.80
2022-08-03T23:03:11.834Z,1.50
2022-08-03T23:06:02.636Z,1.70
2022-08-03T23:08:39.082Z,1.75
2022-08-03T23:11:11.227Z,2.00
2022-08-03T23:13:58.782Z,1.85
2022-08-03T23:16:30.611Z,1.67
2022-08-03T23:19:17.303Z,1.58
2022-08-03T23:22:02.713Z,1.52
2022-08-03T23:24:39.341Z,1.58
2022-08-03T23:27:12.905Z,1.85
2022-08-03T23:29:48.324Z,1.70
2022-08-03T23:32:24.201Z,1.50
2022-08-03T23:35:16.972Z,1.60
2022-08-03T23:38:04.045Z,1.60
2022-08-03T23:40:46.238Z,1.60
2022-08-03T23:43:44.418Z,1.63
2022-08-03T23:46:21.018Z,1.52
2022-08-03T23:48:53.718Z,1.48
2022-08-03T23:51:42.082Z,1.90
2022-08-03T23:54:31.582Z,1.52
2022-08-03T23:57:17.969Z,1.50
